Time;durP1;ratioP1;P1;durP2;ratioP2;P2;SDS_P1;SDS_P2;PMS_P1;PMS_P2;Temp;Humidity;BMP_temperature;BMP_pressure;BME280_temperature;BME280_humidity;BME280_pressure;Samples;Min_cycle;Max_cycle;Signal;HPM_P1;HPM_P2
2021/07/26 00:00:29;;;;;;;17.63;9.20;;;21.30;99.90;;;;;;4998751;28;20547;-94
2021/07/26 00:02:55;;;;;;;13.13;8.77;;;20.70;99.90;;;;;;4998919;28;20226;-94
2021/07/26 00:05:20;;;;;;;12.05;9.05;;;20.90;99.90;;;;;;4997987;28;20212;-95
2021/07/26 00:07:46;;;;;;;10.75;8.27;;;20.90;99.90;;;;;;4982243;28;20560;-94
2021/07/26 00:10:12;;;;;;;13.35;9.18;;;20.70;99.90;;;;;;5015634;28;20705;-95
2021/07/26 00:12:38;;;;;;;12.77;9.02;;;20.70;99.90;;;;;;5016433;28;20559;-95
2021/07/26 00:15:07;;;;;;;11.02;8.70;;;20.70;99.90;;;;;;4982272;28;20689;-94
2021/07/26 00:17:33;;;;;;;14.50;9.50;;;20.60;99.90;;;;;;4999068;28;20223;-96
2021/07/26 00:19:58;;;;;;;14.02;8.63;;;20.60;99.90;;;;;;5016956;28;20181;-96
2021/07/26 00:22:24;;;;;;;11.82;8.88;;;20.60;99.90;;;;;;4999085;28;20209;-95
2021/07/26 00:24:50;;;;;;;14.13;9.10;;;;;;;;;;4982900;28;20204;-95
2021/07/26 00:27:16;;;;;;;22.27;10.18;;;;;;;;;;4998375;28;20617;-95
2021/07/26 00:29:42;;;;;;;14.25;8.63;;;20.60;99.90;;;;;;4998480;28;20296;-95
2021/07/26 00:32:08;;;;;;;15.35;9.63;;;20.80;99.90;;;;;;4997854;28;20192;-95
2021/07/26 00:34:33;;;;;;;15.23;9.82;;;20.90;99.90;;;;;;4998109;28;20240;-96
2021/07/26 00:37:02;;;;;;;11.10;9.05;;;20.50;99.90;;;;;;4998086;28;20193;-96
2021/07/26 00:39:30;;;;;;;12.75;9.50;;;20.70;99.90;;;;;;4998274;28;20185;-95
2021/07/26 00:41:57;;;;;;;12.75;10.15;;;20.50;99.90;;;;;;4998230;28;20520;-95
2021/07/26 00:44:24;;;;;;;12.27;9.50;;;20.40;99.90;;;;;;4997468;28;20618;-96
2021/07/26 00:46:51;;;;;;;10.70;9.20;;;20.40;99.90;;;;;;5014838;28;20696;-96
2021/07/26 00:49:18;;;;;;;11.90;9.85;;;20.30;99.90;;;;;;5014624;28;20213;-95
2021/07/26 00:51:49;;;;;;;13.73;9.65;;;20.60;99.90;;;;;;4997333;28;20212;-94
2021/07/26 00:54:24;;;;;;;14.35;9.45;;;20.30;99.90;;;;;;4997319;28;20588;-93
2021/07/26 00:56:52;;;;;;;12.40;8.88;;;20.00;99.90;;;;;;4997173;28;20204;-95
2021/07/26 00:59:18;;;;;;;15.05;10.00;;;;;;;;;;5014470;28;20263;-95
2021/07/26 01:01:44;;;;;;;16.45;9.82;;;20.30;99.90;;;;;;4997134;28;20181;-95
2021/07/26 01:04:10;;;;;;;15.63;10.07;;;20.30;99.90;;;;;;4997318;28;20277;-92
2021/07/26 01:06:36;;;;;;;12.75;10.30;;;;;;;;;;4980348;28;20303;-94
2021/07/26 01:09:03;;;;;;;12.75;9.80;;;20.20;99.90;;;;;;4997364;28;20193;-94
2021/07/26 01:11:29;;;;;;;14.65;9.63;;;20.20;99.90;;;;;;4996773;28;20593;-94
2021/07/26 01:13:55;;;;;;;12.63;9.70;;;20.10;99.90;;;;;;4996591;28;20213;-93
2021/07/26 01:16:23;;;;;;;12.90;9.43;;;20.10;99.90;;;;;;4996447;28;20224;-92
2021/07/26 01:18:49;;;;;;;14.27;10.65;;;20.10;99.90;;;;;;5014490;28;20256;-92
2021/07/26 01:21:17;;;;;;;14.80;9.98;;;20.00;99.90;;;;;;4996166;28;20276;-91
2021/07/26 01:23:46;;;;;;;14.02;9.25;;;20.00;99.90;;;;;;4996468;28;20485;-92
2021/07/26 01:26:13;;;;;;;16.23;9.48;;;20.00;99.90;;;;;;5013752;28;20255;-94
2021/07/26 01:28:41;;;;;;;12.88;9.18;;;20.00;99.90;;;;;;4997115;28;20699;-93
2021/07/26 01:31:10;;;;;;;15.32;10.73;;;20.20;99.90;;;;;;4999863;28;20181;-95
2021/07/26 01:33:36;;;;;;;12.20;9.55;;;20.00;99.90;;;;;;4996266;28;20673;-93
2021/07/26 01:36:03;;;;;;;15.02;9.02;;;20.00;99.90;;;;;;5015445;28;20220;-93
2021/07/26 01:38:29;;;;;;;13.85;9.55;;;20.00;99.90;;;;;;5003478;28;20173;-92
2021/07/26 01:41:01;;;;;;;15.35;10.30;;;20.00;99.90;;;;;;5018238;28;20220;-91
2021/07/26 01:43:32;;;;;;;13.70;9.20;;;20.00;99.90;;;;;;5001243;28;20174;-92
2021/07/26 01:46:24;;;;;;;13.40;9.93;;;20.00;99.90;;;;;;5000469;28;20209;-93
2021/07/26 01:49:27;;;;;;;12.20;9.65;;;20.00;99.90;;;;;;5006439;28;20200;-92
2021/07/26 01:51:52;;;;;;;16.55;9.50;;;20.00;99.90;;;;;;4996681;28;20181;-93
2021/07/26 01:54:19;;;;;;;10.55;9.38;;;20.00;99.90;;;;;;4996550;28;20181;-91
2021/07/26 01:56:45;;;;;;;14.90;9.85;;;19.90;99.90;;;;;;4997354;28;20642;-92
2021/07/26 01:59:11;;;;;;;11.27;8.90;;;20.20;99.90;;;;;;4996749;28;20177;-92
2021/07/26 02:01:36;;;;;;;13.30;9.18;;;19.90;99.90;;;;;;5014095;28;20223;-93
2021/07/26 02:04:02;;;;;;;12.30;9.85;;;20.00;99.90;;;;;;4996829;28;20268;-92
2021/07/26 02:06:28;;;;;;;11.82;9.02;;;20.00;99.90;;;;;;4996173;28;20201;-92
2021/07/26 02:08:54;;;;;;;12.80;8.55;;;20.00;99.90;;;;;;4980463;28;20192;-93
2021/07/26 02:11:22;;;;;;;12.98;8.98;;;20.00;99.90;;;;;;4996928;28;20325;-95
2021/07/26 02:13:49;;;;;;;12.13;9.10;;;20.10;99.90;;;;;;4997292;28;20184;-94
2021/07/26 02:16:15;;;;;;;12.63;8.93;;;20.00;99.90;;;;;;5014682;28;20188;-94
2021/07/26 02:18:40;;;;;;;11.45;8.57;;;20.00;99.90;;;;;;4982294;28;20236;-94
2021/07/26 02:21:06;;;;;;;11.82;8.85;;;;;;;;;;5001805;28;20288;-94
2021/07/26 02:23:32;;;;;;;11.00;8.90;;;20.10;99.90;;;;;;5003274;28;20664;-94
2021/07/26 02:25:58;;;;;;;11.00;8.63;;;20.00;99.90;;;;;;5024504;28;20209;-93
2021/07/26 02:28:24;;;;;;;14.35;9.13;;;20.10;99.90;;;;;;5041326;28;20188;-90
2021/07/26 02:30:50;;;;;;;9.75;7.95;;;20.10;99.90;;;;;;5034759;28;20554;-93
2021/07/26 02:33:15;;;;;;;12.13;9.15;;;20.10;99.90;;;;;;5011591;28;20204;-94
2021/07/26 02:35:41;;;;;;;15.02;9.18;;;20.10;99.90;;;;;;5001573;28;20201;-93
2021/07/26 02:38:07;;;;;;;9.80;8.20;;;20.10;99.90;;;;;;4997397;28;20208;-94
2021/07/26 02:40:33;;;;;;;12.93;8.55;;;20.10;99.90;;;;;;5001347;28;20188;-94
2021/07/26 02:42:59;;;;;;;11.88;8.45;;;;;;;;;;4999990;28;20181;-95
2021/07/26 02:45:26;;;;;;;13.02;8.23;;;20.20;99.90;;;;;;5000269;28;20696;-92
2021/07/26 02:47:52;;;;;;;14.13;9.82;;;19.90;99.90;;;;;;5018416;28;20181;-94
2021/07/26 02:50:19;;;;;;;10.07;7.68;;;20.10;99.90;;;;;;5000749;28;20276;-95
2021/07/26 02:52:44;;;;;;;15.93;7.93;;;20.10;99.90;;;;;;5018101;28;20212;-93
2021/07/26 02:55:11;;;;;;;9.30;7.20;;;20.20;99.90;;;;;;5000838;28;20184;-95
2021/07/26 02:57:37;;;;;;;19.33;8.13;;;20.20;99.90;;;;;;4984436;28;20181;-94
2021/07/26 03:00:07;;;;;;;13.80;8.48;;;20.20;99.90;;;;;;5002300;28;20187;-92
2021/07/26 03:02:34;;;;;;;15.63;8.45;;;20.10;99.90;;;;;;5016784;28;20174;-91
2021/07/26 03:05:00;;;;;;;16.35;8.10;;;;;;;;;;5017056;28;20638;-93
2021/07/26 03:07:26;;;;;;;13.23;8.30;;;20.10;99.90;;;;;;4982945;28;20661;-92
2021/07/26 03:09:51;;;;;;;13.55;7.97;;;20.10;99.90;;;;;;4978852;28;20229;-91
2021/07/26 03:12:17;;;;;;;12.98;8.35;;;20.10;99.90;;;;;;4995775;28;20588;-92
2021/07/26 03:14:43;;;;;;;13.75;7.88;;;20.10;99.90;;;;;;4995417;28;20185;-92
2021/07/26 03:17:08;;;;;;;11.63;7.55;;;20.10;99.90;;;;;;4995173;28;20193;-92
2021/07/26 03:19:34;;;;;;;14.77;8.20;;;20.20;99.90;;;;;;4979120;28;20309;-93
2021/07/26 03:22:47;;;;;;;10.32;6.72;;;20.20;99.90;;;;;;4996769;28;20658;-90
2021/07/26 03:25:13;;;;;;;12.05;7.55;;;20.20;99.90;;;;;;4997251;28;20178;-92
2021/07/26 03:27:39;;;;;;;11.93;7.30;;;20.20;99.90;;;;;;4978971;28;20587;-93
2021/07/26 03:30:05;;;;;;;12.50;7.65;;;20.20;99.90;;;;;;4997537;28;20178;-93
2021/07/26 03:32:31;;;;;;;13.23;6.88;;;20.30;99.90;;;;;;4995819;28;20265;-91
2021/07/26 03:34:56;;;;;;;11.27;7.00;;;20.30;99.90;;;;;;4995592;28;20217;-94
2021/07/26 03:37:22;;;;;;;13.13;6.95;;;20.30;99.90;;;;;;4962881;28;20174;-93
2021/07/26 03:39:48;;;;;;;13.13;6.95;;;20.30;99.90;;;;;;4995403;28;20182;-93
2021/07/26 03:42:13;;;;;;;11.10;7.30;;;20.40;99.90;;;;;;4995161;28;20186;-93
2021/07/26 03:44:39;;;;;;;16.35;7.88;;;20.40;99.90;;;;;;4995249;28;20256;-93
2021/07/26 03:47:04;;;;;;;14.10;6.57;;;20.40;99.90;;;;;;4995261;28;20206;-93
2021/07/26 03:49:30;;;;;;;11.77;6.65;;;20.40;99.90;;;;;;4995208;28;20210;-91
2021/07/26 03:51:56;;;;;;;14.77;7.47;;;20.50;99.90;;;;;;4978489;28;20233;-93
2021/07/26 03:54:21;;;;;;;13.50;7.15;;;20.50;99.90;;;;;;4994909;28;20239;-91
2021/07/26 03:56:47;;;;;;;10.05;7.13;;;20.40;99.90;;;;;;4995750;28;20190;-92
2021/07/26 03:59:13;;;;;;;13.02;7.13;;;20.40;99.90;;;;;;4996042;28;20174;-92
2021/07/26 04:01:38;;;;;;;13.07;7.32;;;20.40;99.90;;;;;;4994529;28;20581;-90
2021/07/26 04:04:04;;;;;;;12.77;7.40;;;20.40;99.90;;;;;;4995152;28;20182;-93
2021/07/26 04:06:30;;;;;;;12.55;7.40;;;20.30;99.90;;;;;;4995115;28;20435;-92
2021/07/26 04:08:56;;;;;;;11.32;6.78;;;20.40;99.90;;;;;;4978722;28;20188;-92
2021/07/26 04:11:32;;;;;;;8.98;6.63;;;20.40;99.90;;;;;;5012536;28;20229;-92
2021/07/26 04:14:04;;;;;;;14.77;7.13;;;20.30;99.90;;;;;;5015175;28;20170;-91
2021/07/26 04:16:30;;;;;;;12.52;7.43;;;20.40;99.90;;;;;;4983355;28;20177;-92
2021/07/26 04:18:57;;;;;;;16.27;8.32;;;20.50;99.90;;;;;;5006384;28;20182;-91
2021/07/26 04:21:33;;;;;;;17.85;8.27;;;20.60;99.90;;;;;;5009004;28;20181;-92
2021/07/26 04:24:02;;;;;;;19.50;7.22;;;20.60;99.90;;;;;;5004582;28;20414;-92
2021/07/26 04:26:28;;;;;;;9.45;7.45;;;20.60;99.90;;;;;;5016817;28;20208;-93
2021/07/26 04:28:54;;;;;;;10.25;7.38;;;20.70;99.90;;;;;;4998569;28;20189;-94
2021/07/26 04:31:19;;;;;;;20.63;8.55;;;20.80;99.90;;;;;;4982050;28;20181;-94
2021/07/26 04:33:45;;;;;;;14.98;7.78;;;20.80;99.90;;;;;;4998015;28;20232;-93
2021/07/26 04:36:11;;;;;;;11.88;7.63;;;20.90;99.90;;;;;;4998147;28;20185;-93
2021/07/26 04:38:36;;;;;;;13.23;7.93;;;20.90;99.90;;;;;;4997667;28;20235;-93
2021/07/26 04:41:02;;;;;;;16.30;8.82;;;20.90;99.90;;;;;;5014308;28;20181;-94
2021/07/26 04:43:28;;;;;;;16.75;9.77;;;20.70;99.90;;;;;;4997766;28;20196;-93
2021/07/26 04:45:55;;;;;;;24.42;10.18;;;20.50;99.90;;;;;;5014919;28;20788;-94
2021/07/26 04:48:22;;;;;;;18.75;9.43;;;20.20;99.90;;;;;;4982025;28;20212;-93
2021/07/26 04:50:47;;;;;;;18.02;8.90;;;20.10;99.90;;;;;;5014684;28;20178;-93
2021/07/26 04:53:13;;;;;;;13.40;9.20;;;20.00;99.90;;;;;;4981329;28;20187;-90
2021/07/26 04:55:39;;;;;;;20.15;10.50;;;20.00;99.90;;;;;;4996958;28;20184;-92
2021/07/26 04:58:04;;;;;;;15.52;9.73;;;19.80;99.90;;;;;;5025491;28;20641;-93
2021/07/26 05:00:30;;;;;;;13.85;9.90;;;19.70;99.90;;;;;;5023958;28;20224;-91
2021/07/26 05:02:56;;;;;;;14.23;9.35;;;19.70;99.90;;;;;;5006533;28;20194;-94
2021/07/26 05:05:23;;;;;;;17.65;9.73;;;19.80;99.90;;;;;;5026626;28;20255;-94
2021/07/26 05:07:48;;;;;;;16.98;10.38;;;19.80;99.90;;;;;;5007162;28;20181;-94
2021/07/26 05:10:14;;;;;;;16.67;9.23;;;19.80;99.90;;;;;;5033014;28;20297;-91
2021/07/26 05:12:42;;;;;;;16.17;10.60;;;19.80;99.90;;;;;;5019012;28;20199;-90
2021/07/26 05:15:08;;;;;;;14.02;9.65;;;19.80;99.90;;;;;;5001353;28;20191;-94
2021/07/26 05:17:34;;;;;;;16.80;10.25;;;19.70;99.90;;;;;;5021919;28;20271;-94
2021/07/26 05:20:00;;;;;;;12.60;10.10;;;19.70;99.90;;;;;;5001006;28;20260;-93
2021/07/26 05:22:25;;;;;;;14.30;9.07;;;19.70;99.90;;;;;;5036931;28;20247;-94
2021/07/26 05:24:51;;;;;;;15.85;9.57;;;19.60;99.90;;;;;;5034317;28;20230;-94
2021/07/26 05:27:17;;;;;;;15.23;10.13;;;19.60;99.90;;;;;;5001370;28;20208;-93
2021/07/26 05:29:43;;;;;;;21.90;10.43;;;19.60;99.90;;;;;;5032925;28;20172;-93
2021/07/26 05:32:09;;;;;;;17.05;10.23;;;19.60;99.90;;;;;;5000844;28;20192;-93
2021/07/26 05:34:35;;;;;;;15.35;10.55;;;19.60;99.90;;;;;;5018266;28;20271;-95
2021/07/26 05:37:01;;;;;;;13.48;9.73;;;19.70;99.90;;;;;;5003234;28;20191;-94
2021/07/26 05:39:27;;;;;;;16.50;10.57;;;19.70;99.90;;;;;;5028496;28;20645;-93
2021/07/26 05:41:56;;;;;;;17.00;10.50;;;19.70;99.90;;;;;;5036307;28;20207;-95
2021/07/26 05:44:22;;;;;;;20.38;11.55;;;19.70;99.90;;;;;;5036625;28;20184;-96
2021/07/26 05:46:48;;;;;;;18.75;13.13;;;19.70;99.90;;;;;;4992221;28;20216;-95
2021/07/26 05:49:13;;;;;;;17.52;11.90;;;19.80;99.90;;;;;;5018800;28;20390;-95
2021/07/26 05:51:39;;;;;;;18.27;12.00;;;19.70;99.90;;;;;;5016969;28;20181;-94
2021/07/26 05:54:05;;;;;;;19.70;12.30;;;19.70;99.90;;;;;;5036758;28;20263;-95
2021/07/26 05:56:37;;;;;;;15.45;11.70;;;19.70;99.90;;;;;;5006638;28;20192;-93
2021/07/26 05:59:03;;;;;;;18.17;13.25;;;19.70;99.90;;;;;;5018198;28;20180;-94
2021/07/26 06:01:47;;;;;;;18.25;13.73;;;19.80;99.90;;;;;;5018999;28;20187;-94
2021/07/26 06:04:19;;;;;;;17.95;13.63;;;19.80;99.90;;;;;;5017360;28;20632;-95
2021/07/26 06:06:49;;;;;;;23.50;12.70;;;19.80;99.90;;;;;;5036239;28;20212;-95
2021/07/26 06:09:15;;;;;;;17.10;12.80;;;19.90;99.90;;;;;;5032905;28;20185;-92
2021/07/26 06:11:42;;;;;;;14.55;10.65;;;19.80;99.90;;;;;;5003292;28;20225;-94
2021/07/26 06:14:09;;;;;;;17.77;11.45;;;19.80;99.90;;;;;;4997233;28;20181;-93
2021/07/26 06:16:39;;;;;;;14.65;11.25;;;19.80;99.90;;;;;;5005147;28;20209;-93
2021/07/26 06:19:09;;;;;;;17.13;11.07;;;19.80;99.90;;;;;;5001935;28;20666;-93
2021/07/26 06:21:43;;;;;;;16.02;11.77;;;19.90;99.90;;;;;;4998501;28;20174;-90
2021/07/26 06:24:09;;;;;;;14.25;10.23;;;19.90;99.90;;;;;;4998971;28;20170;-94
2021/07/26 06:26:35;;;;;;;15.02;10.77;;;19.90;99.90;;;;;;4988207;28;20260;-92
2021/07/26 06:29:00;;;;;;;12.07;8.88;;;19.90;99.90;;;;;;5004846;28;20193;-95
2021/07/26 06:31:26;;;;;;;12.13;8.75;;;20.00;99.90;;;;;;5009040;28;20185;-95
2021/07/26 06:33:52;;;;;;;13.98;9.55;;;20.00;99.90;;;;;;5008789;28;20199;-95
2021/07/26 06:36:18;;;;;;;10.77;8.25;;;19.90;99.90;;;;;;5010176;28;20670;-94
2021/07/26 06:38:44;;;;;;;11.30;8.77;;;20.00;99.90;;;;;;5011690;28;20181;-91
2021/07/26 06:41:09;;;;;;;15.20;8.75;;;19.90;99.90;;;;;;5006447;28;20236;-94
2021/07/26 06:43:35;;;;;;;13.63;8.60;;;19.90;99.90;;;;;;5009883;28;20208;-95
2021/07/26 06:46:07;;;;;;;11.43;8.52;;;20.00;99.90;;;;;;5012995;28;20290;-95
2021/07/26 06:48:33;;;;;;;13.80;8.57;;;20.10;99.90;;;;;;5015894;28;20237;-95
2021/07/26 06:50:59;;;;;;;15.70;9.27;;;20.20;99.90;;;;;;5014885;28;20181;-93
2021/07/26 06:53:25;;;;;;;15.85;8.52;;;20.20;99.90;;;;;;5018034;28;20184;-92
2021/07/26 06:55:51;;;;;;;13.50;8.00;;;20.30;99.90;;;;;;5011951;28;20204;-93
2021/07/26 06:58:17;;;;;;;19.98;8.23;;;20.60;99.90;;;;;;5022692;28;20169;-94
2021/07/26 07:00:42;;;;;;;10.73;8.07;;;20.50;99.90;;;;;;5031968;28;20650;-96
2021/07/26 07:03:08;;;;;;;9.60;7.65;;;20.60;99.90;;;;;;4985041;28;20173;-92
2021/07/26 07:05:34;;;;;;;12.95;8.57;;;20.60;99.90;;;;;;5020614;28;20213;-96
2021/07/26 07:07:59;;;;;;;14.38;7.93;;;20.70;99.90;;;;;;5006854;28;20676;-93
2021/07/26 07:10:25;;;;;;;11.07;7.60;;;20.70;99.90;;;;;;5008059;28;20221;-96
2021/07/26 07:12:54;;;;;;;9.40;7.70;;;20.70;99.90;;;;;;5017363;28;20184;-94
2021/07/26 07:15:21;;;;;;;19.35;8.48;;;20.70;99.90;;;;;;4999006;28;20194;-91
2021/07/26 07:17:47;;;;;;;17.48;8.45;;;20.70;99.90;;;;;;4965231;28;20651;-95
2021/07/26 07:20:14;;;;;;;11.70;7.85;;;20.70;99.90;;;;;;5001344;28;20185;-95
2021/07/26 07:22:40;;;;;;;13.90;7.40;;;20.80;99.90;;;;;;4999259;28;20232;-92
2021/07/26 07:25:05;;;;;;;10.20;7.22;;;20.80;99.90;;;;;;4978802;28;20584;-89
2021/07/26 07:27:31;;;;;;;12.52;8.18;;;20.80;99.90;;;;;;4996610;28;20301;-92
2021/07/26 07:29:57;;;;;;;13.57;9.25;;;20.80;99.90;;;;;;4979359;28;20189;-95
2021/07/26 07:32:23;;;;;;;10.95;8.48;;;20.80;99.90;;;;;;4983275;28;20185;-96
2021/07/26 07:34:48;;;;;;;9.27;7.65;;;20.70;99.90;;;;;;4997659;28;20182;-93
2021/07/26 07:37:14;;;;;;;9.57;7.07;;;20.70;99.90;;;;;;5000135;28;20268;-90
2021/07/26 07:39:40;;;;;;;11.45;7.38;;;20.50;99.90;;;;;;5019943;28;20166;-94
2021/07/26 07:42:06;;;;;;;12.57;7.00;;;20.40;99.90;;;;;;5020373;28;20229;-96
2021/07/26 07:44:32;;;;;;;9.05;7.45;;;20.40;99.90;;;;;;5019486;28;20202;-95
2021/07/26 07:46:59;;;;;;;8.43;6.60;;;20.30;99.90;;;;;;5001318;28;20222;-94
2021/07/26 07:49:25;;;;;;;9.27;6.85;;;20.30;99.90;;;;;;5014815;28;20189;-95
2021/07/26 07:51:51;;;;;;;8.55;7.13;;;20.20;99.90;;;;;;5005082;28;20177;-91
2021/07/26 07:54:17;;;;;;;9.43;6.60;;;20.20;99.90;;;;;;4999549;28;20181;-93
2021/07/26 07:56:43;;;;;;;10.93;6.22;;;20.20;99.90;;;;;;4996157;28;20178;-90
2021/07/26 07:59:10;;;;;;;11.73;5.88;;;20.20;99.90;;;;;;4995013;28;20578;-95
2021/07/26 08:01:36;;;;;;;9.95;6.25;;;20.20;99.90;;;;;;4997014;28;20167;-92
2021/07/26 08:04:02;;;;;;;8.95;6.20;;;20.10;99.90;;;;;;4996342;28;20180;-94
2021/07/26 08:06:28;;;;;;;8.65;6.38;;;20.10;99.90;;;;;;5008003;28;20271;-91
2021/07/26 08:08:53;;;;;;;10.75;5.72;;;20.10;99.90;;;;;;5016602;28;20350;-94
2021/07/26 08:11:19;;;;;;;8.05;5.97;;;20.00;99.90;;;;;;4998942;28;20268;-89
2021/07/26 08:13:44;;;;;;;9.35;6.47;;;20.10;99.90;;;;;;5015937;28;20181;-92
2021/07/26 08:16:10;;;;;;;7.50;6.40;;;20.10;99.90;;;;;;5009363;28;20544;-92
2021/07/26 08:18:36;;;;;;;9.82;6.13;;;20.10;99.90;;;;;;5007357;28;20524;-93
2021/07/26 08:21:01;;;;;;;8.70;5.97;;;20.30;99.90;;;;;;5007817;28;20539;-93
2021/07/26 08:23:27;;;;;;;9.57;6.45;;;20.40;99.90;;;;;;5006054;28;20181;-90
2021/07/26 08:25:53;;;;;;;8.70;6.22;;;20.50;99.90;;;;;;5002373;28;20210;-94
2021/07/26 08:28:19;;;;;;;8.85;6.25;;;20.60;99.90;;;;;;5003524;28;20579;-91
2021/07/26 08:30:44;;;;;;;8.50;6.47;;;20.70;99.90;;;;;;5004183;28;20174;-90
2021/07/26 08:33:11;;;;;;;12.45;7.57;;;20.80;99.90;;;;;;5003134;28;20177;-91
2021/07/26 08:35:37;;;;;;;10.27;6.00;;;21.10;99.90;;;;;;5004683;28;20307;-93
2021/07/26 08:38:04;;;;;;;8.90;5.90;;;21.20;99.90;;;;;;5004898;28;20194;-91
2021/07/26 08:40:31;;;;;;;8.13;6.32;;;21.30;99.90;;;;;;5006655;28;20189;-93
2021/07/26 08:43:00;;;;;;;10.02;6.05;;;21.40;99.90;;;;;;5004006;28;20547;-91
2021/07/26 08:45:25;;;;;;;9.63;6.13;;;21.50;99.90;;;;;;5005085;28;20200;-91
2021/07/26 08:47:52;;;;;;;7.65;6.15;;;21.60;99.90;;;;;;5012191;28;20634;-92
2021/07/26 08:50:19;;;;;;;7.30;5.85;;;21.70;99.90;;;;;;5014335;28;20180;-91
2021/07/26 08:52:47;;;;;;;8.13;6.13;;;21.80;99.90;;;;;;5015222;28;20189;-92
2021/07/26 08:55:23;;;;;;;6.95;5.93;;;21.90;99.90;;;;;;5013171;28;20181;-92
2021/07/26 08:57:50;;;;;;;8.73;5.93;;;22.00;99.90;;;;;;5014930;28;20664;-90
2021/07/26 09:00:18;;;;;;;6.47;4.80;;;22.00;99.90;;;;;;5014160;28;20181;-91
2021/07/26 09:02:43;;;;;;;7.63;5.65;;;22.10;99.90;;;;;;5008798;28;20198;-91
2021/07/26 09:05:11;;;;;;;9.23;5.43;;;22.20;99.90;;;;;;4997412;28;20184;-90
2021/07/26 09:07:41;;;;;;;9.43;5.45;;;22.30;99.90;;;;;;5012393;28;20227;-90
2021/07/26 09:10:14;;;;;;;6.68;4.75;;;22.40;99.90;;;;;;4997228;28;20237;-91
2021/07/26 09:12:41;;;;;;;8.98;5.10;;;22.40;99.90;;;;;;5013110;28;20183;-90
2021/07/26 09:15:24;;;;;;;7.40;5.35;;;22.40;99.90;;;;;;5012925;28;20185;-91
2021/07/26 09:17:51;;;;;;;6.95;4.93;;;22.40;99.90;;;;;;5012972;28;20641;-90
2021/07/26 09:20:18;;;;;;;5.90;5.05;;;22.40;99.90;;;;;;5013800;28;20181;-91
2021/07/26 09:22:47;;;;;;;17.90;6.30;;;22.40;99.90;;;;;;4995978;28;20208;-92
2021/07/26 09:25:15;;;;;;;6.57;5.10;;;22.50;99.90;;;;;;5012952;28;20184;-91
2021/07/26 09:28:20;;;;;;;10.07;6.00;;;22.50;99.90;;;;;;5013316;28;20232;-92
2021/07/26 09:30:53;;;;;;;9.10;6.05;;;22.50;99.90;;;;;;4998058;28;20548;-93
2021/07/26 09:33:29;;;;;;;8.05;5.40;;;22.60;99.90;;;;;;4996847;28;20185;-90
2021/07/26 09:36:19;;;;;;;10.55;6.00;;;22.70;99.90;;;;;;5021381;28;20215;-92
2021/07/26 09:38:53;;;;;;;7.38;5.68;;;22.90;99.90;;;;;;5021636;28;20974;-91
2021/07/26 09:41:43;;;;;;;10.65;6.82;;;22.90;99.90;;;;;;5020354;28;20243;-90
2021/07/26 09:44:09;;;;;;;7.97;6.00;;;23.00;99.90;;;;;;5018316;28;20177;-91
2021/07/26 09:46:38;;;;;;;11.38;6.30;;;23.20;99.90;;;;;;5004896;28;20752;-90
2021/07/26 09:49:11;;;;;;;9.55;6.13;;;23.30;99.90;;;;;;5006853;28;20244;-92
2021/07/26 09:51:38;;;;;;;6.45;5.70;;;23.50;99.90;;;;;;5009752;28;20189;-92
2021/07/26 09:54:04;;;;;;;9.55;6.07;;;23.70;99.90;;;;;;5007718;28;20185;-89
2021/07/26 09:56:32;;;;;;;11.88;6.10;;;23.90;99.90;;;;;;5009029;28;20637;-91
2021/07/26 09:58:58;;;;;;;7.35;5.80;;;24.10;99.90;;;;;;5007049;28;20192;-88
2021/07/26 10:01:24;;;;;;;7.68;5.35;;;24.10;99.90;;;;;;5008159;28;20328;-93
2021/07/26 10:03:53;;;;;;;9.90;5.53;;;24.10;99.90;;;;;;5007265;28;20184;-89
2021/07/26 10:06:19;;;;;;;8.15;6.25;;;24.20;99.90;;;;;;5005616;28;20209;-90
2021/07/26 10:08:48;;;;;;;7.97;5.35;;;24.40;99.90;;;;;;5006426;28;20193;-91
2021/07/26 10:11:15;;;;;;;6.78;4.90;;;24.60;99.90;;;;;;5004093;28;20247;-95
2021/07/26 10:13:42;;;;;;;8.15;5.70;;;24.80;99.90;;;;;;5009814;28;20642;-91
2021/07/26 10:16:15;;;;;;;10.75;5.95;;;25.00;99.90;;;;;;5007951;28;20197;-90
2021/07/26 10:18:45;;;;;;;5.82;5.22;;;25.30;99.90;;;;;;5006219;28;20576;-89
2021/07/26 10:21:17;;;;;;;7.95;5.50;;;25.30;99.90;;;;;;5008873;28;20193;-92
2021/07/26 10:23:54;;;;;;;10.48;4.88;;;25.60;99.90;;;;;;5008667;28;20204;-90
2021/07/26 10:26:31;;;;;;;13.25;5.60;;;25.80;99.90;;;;;;5009402;28;20215;-93
2021/07/26 10:28:57;;;;;;;12.82;5.75;;;26.20;99.90;;;;;;5007679;28;20205;-90
2021/07/26 10:31:32;;;;;;;8.48;6.55;;;26.40;99.90;;;;;;5009518;28;20228;-90
2021/07/26 10:34:06;;;;;;;6.47;5.30;;;26.60;99.90;;;;;;5005325;28;20219;-93
2021/07/26 10:36:41;;;;;;;6.50;4.90;;;26.90;99.90;;;;;;5009869;28;20525;-90
2021/07/26 10:39:08;;;;;;;7.45;4.88;;;27.10;99.90;;;;;;5006187;28;20207;-92
2021/07/26 10:41:43;;;;;;;7.07;5.03;;;27.10;99.90;;;;;;5014651;28;20272;-91
2021/07/26 10:44:18;;;;;;;5.10;4.60;;;27.20;99.90;;;;;;5011261;28;20184;-90
2021/07/26 10:46:53;;;;;;;9.07;5.18;;;27.40;99.90;;;;;;5012741;28;20216;-91
2021/07/26 10:49:39;;;;;;;6.95;5.18;;;27.50;99.90;;;;;;5012546;28;20195;-87
2021/07/26 10:52:05;;;;;;;9.02;4.82;;;27.40;99.90;;;;;;4991894;28;20213;-90
2021/07/26 10:54:32;;;;;;;5.93;4.40;;;27.40;99.90;;;;;;5011305;28;20196;-90
2021/07/26 10:57:04;;;;;;;8.18;4.45;;;27.60;99.90;;;;;;5012565;28;20545;-91
2021/07/26 10:59:30;;;;;;;8.40;4.68;;;27.60;99.90;;;;;;5011328;28;20181;-90
2021/07/26 11:02:03;;;;;;;8.70;5.10;;;27.90;99.90;;;;;;5009723;28;20209;-90
2021/07/26 11:04:39;;;;;;;8.30;5.65;;;27.70;99.90;;;;;;5012735;28;20173;-92
2021/07/26 11:07:06;;;;;;;6.13;5.10;;;25.30;99.90;;;;;;5011208;28;20231;-89
2021/07/26 11:09:39;;;;;;;7.93;5.53;;;27.80;99.90;;;;;;5013133;28;20185;-89
2021/07/26 11:12:06;;;;;;;6.60;5.78;;;27.90;99.90;;;;;;5010478;28;20193;-90
2021/07/26 11:14:32;;;;;;;8.50;5.43;;;28.00;99.90;;;;;;4997343;28;20189;-90
2021/07/26 11:17:11;;;;;;;7.75;5.57;;;28.00;99.90;;;;;;4994886;28;20193;-90
2021/07/26 11:19:52;;;;;;;7.78;5.55;;;28.10;99.90;;;;;;5012936;28;20181;-90
2021/07/26 11:22:21;;;;;;;8.75;5.60;;;28.20;99.90;;;;;;5013476;28;20184;-90
2021/07/26 11:24:57;;;;;;;7.57;5.28;;;28.50;99.90;;;;;;5011801;28;20238;-89
2021/07/26 11:27:23;;;;;;;7.13;6.05;;;28.70;99.90;;;;;;5011686;28;20204;-92
2021/07/26 11:29:54;;;;;;;8.68;5.90;;;28.80;99.90;;;;;;5010802;28;20192;-90
2021/07/26 11:32:21;;;;;;;10.60;6.05;;;28.90;99.90;;;;;;5011110;28;20684;-91
2021/07/26 11:34:53;;;;;;;9.77;6.25;;;29.30;99.90;;;;;;5012484;28;20192;-89
2021/07/26 11:37:19;;;;;;;10.88;6.40;;;;;;;;;;5010834;28;20673;-91
2021/07/26 11:39:53;;;;;;;9.43;6.93;;;28.30;99.90;;;;;;5011371;28;20197;-91
2021/07/26 11:42:40;;;;;;;12.75;7.25;;;28.00;99.90;;;;;;5009532;28;20608;-92
2021/07/26 11:45:10;;;;;;;11.45;7.53;;;27.90;99.90;;;;;;5007326;28;20780;-88
2021/07/26 11:47:39;;;;;;;16.10;7.47;;;27.80;99.90;;;;;;5008218;28;20620;-92
2021/07/26 11:50:09;;;;;;;9.38;7.68;;;27.70;99.90;;;;;;5010720;28;20200;-92
2021/07/26 11:52:40;;;;;;;9.60;7.32;;;27.60;99.90;;;;;;5010490;28;20205;-92
2021/07/26 11:55:13;;;;;;;13.43;7.35;;;27.50;99.90;;;;;;5007821;28;20248;-90
2021/07/26 11:58:02;;;;;;;12.18;7.85;;;27.50;99.90;;;;;;5009749;28;20842;-92
2021/07/26 12:00:46;;;;;;;13.18;7.95;;;27.50;99.90;;;;;;4991013;28;20276;-91
2021/07/26 12:03:15;;;;;;;9.70;8.02;;;27.30;99.90;;;;;;5005418;28;20200;-90
2021/07/26 12:05:40;;;;;;;12.13;7.82;;;27.20;99.90;;;;;;5013502;28;20237;-90
2021/07/26 12:08:17;;;;;;;9.55;8.10;;;27.30;99.90;;;;;;4993928;28;20763;-91
2021/07/26 12:10:43;;;;;;;13.60;8.30;;;27.40;99.90;;;;;;5010516;28;20228;-91
2021/07/26 12:13:19;;;;;;;12.73;8.07;;;27.40;99.90;;;;;;5011830;28;20236;-90
2021/07/26 12:15:50;;;;;;;10.80;7.80;;;27.40;99.90;;;;;;5011260;28;20199;-91
2021/07/26 12:18:17;;;;;;;18.23;9.57;;;27.40;99.90;;;;;;5010084;28;20213;-90
2021/07/26 12:20:57;;;;;;;9.82;7.97;;;27.60;99.90;;;;;;5009711;28;20646;-93
2021/07/26 12:23:24;;;;;;;10.38;8.48;;;27.60;99.90;;;;;;5010285;28;20173;-90
2021/07/26 12:28:46;;;;;;;10.00;8.00;;;27.30;99.90;;;;;;5060696;23;20271;-94
2021/07/26 12:31:29;;;;;;;12.15;8.60;;;25.10;99.90;;;;;;5001221;28;20658;-93
2021/07/26 12:34:23;;;;;;;10.68;8.30;;;27.20;99.90;;;;;;5007173;28;20185;-93
2021/07/26 12:36:50;;;;;;;16.23;8.90;;;27.20;99.90;;;;;;5009379;28;20796;-94
2021/07/26 12:39:17;;;;;;;16.50;9.65;;;27.20;99.90;;;;;;5028267;28;20212;-94
2021/07/26 12:41:50;;;;;;;15.10;9.57;;;27.00;99.90;;;;;;5013406;28;20268;-94
2021/07/26 12:44:42;;;;;;;15.68;10.15;;;26.60;99.90;;;;;;4980524;28;20394;-93
2021/07/26 12:47:24;;;;;;;18.40;10.73;;;26.30;99.90;;;;;;4994753;28;20727;-94
2021/07/26 12:49:50;;;;;;;16.67;10.32;;;26.10;99.90;;;;;;5017943;28;20196;-89